createdAt,value
2023-05-05T00:01:24.298Z,101897.94
2023-05-05T00:03:50.851Z,101904.81
2023-05-05T00:06:17.400Z,101901.81
2023-05-05T00:08:43.879Z,101888.38
2023-05-05T00:11:10.351Z,101894.19
2023-05-05T00:13:36.846Z,101891.44
2023-05-05T00:16:03.965Z,101888.81
2023-05-05T00:18:30.422Z,101897.91
2023-05-05T00:20:57.035Z,101889.97
2023-05-05T00:23:23.478Z,101894.25
2023-05-05T00:25:49.971Z,101890.50
2023-05-05T00:28:16.445Z,101884.81
2023-05-05T00:30:42.936Z,101881.22
2023-05-05T00:33:09.581Z,101869.81
2023-05-05T00:35:36.071Z,101880.50
2023-05-05T00:38:02.995Z,101879.31
2023-05-05T00:40:29.573Z,101876.38
2023-05-05T00:42:55.991Z,101864.44
2023-05-05T00:45:22.661Z,101868.88
2023-05-05T00:47:51.566Z,101874.22
2023-05-05T00:50:29.062Z,101864.00
2023-05-05T00:53:06.740Z,101865.47
2023-05-05T00:55:34.505Z,101860.88
2023-05-05T00:58:03.035Z,101862.25
2023-05-05T01:00:30.913Z,101867.06
2023-05-05T01:02:57.514Z,101854.25
2023-05-05T01:05:24.789Z,101865.56
2023-05-05T01:08:19.492Z,101869.91
2023-05-05T01:10:50.285Z,101878.03
2023-05-05T01:13:26.623Z,101867.91
2023-05-05T01:16:01.611Z,101860.31
2023-05-05T01:18:40.580Z,101860.97
2023-05-05T01:21:27.064Z,101854.53
2023-05-05T01:24:07.942Z,101860.38
2023-05-05T01:27:12.049Z,101864.16
2023-05-05T01:30:05.688Z,101859.59
2023-05-05T01:32:35.762Z,101863.41
2023-05-05T01:35:06.329Z,101862.06
2023-05-05T01:37:59.107Z,101860.09
2023-05-05T01:40:28.289Z,101858.38
2023-05-05T01:42:55.575Z,101859.56
2023-05-05T01:45:25.365Z,101855.00
2023-05-05T01:47:52.789Z,101852.88
2023-05-05T01:50:19.596Z,101851.97
2023-05-05T01:52:46.743Z,101850.91
2023-05-05T01:55:14.897Z,101849.31
2023-05-05T01:57:42.565Z,101851.66
2023-05-05T02:00:09.870Z,101844.28
2023-05-05T02:02:38.922Z,101845.75
2023-05-05T02:05:06.677Z,101858.81
2023-05-05T02:07:33.874Z,101853.16
2023-05-05T02:10:02.778Z,101845.78
2023-05-05T02:12:30.312Z,101847.16
2023-05-05T02:14:59.249Z,101840.06
2023-05-05T02:17:26.403Z,101844.31
2023-05-05T02:19:53.233Z,101836.41
2023-05-05T02:22:19.779Z,101835.47
2023-05-05T02:24:46.340Z,101833.28
2023-05-05T02:27:16.463Z,101830.16
2023-05-05T02:29:48.016Z,101836.53
2023-05-05T02:32:18.638Z,101822.53
2023-05-05T02:34:46.455Z,101822.22
2023-05-05T02:37:16.030Z,101813.66
2023-05-05T02:39:58.658Z,101810.06
2023-05-05T02:42:29.035Z,101811.22
2023-05-05T02:44:58.829Z,101807.81
2023-05-05T02:47:35.667Z,101808.50
2023-05-05T02:50:03.411Z,101800.00
2023-05-05T02:52:30.070Z,101795.09
2023-05-05T02:54:56.571Z,101796.13
2023-05-05T02:57:31.153Z,101794.25
2023-05-05T03:00:05.985Z,101786.63
2023-05-05T03:02:55.888Z,101786.84
2023-05-05T03:05:23.952Z,101782.09
2023-05-05T03:08:03.403Z,101780.19
2023-05-05T03:10:31.459Z,101793.69
2023-05-05T03:13:00.125Z,101784.09
2023-05-05T03:15:36.693Z,101766.53
2023-05-05T03:18:04.076Z,101781.25
2023-05-05T03:20:30.720Z,101781.78
2023-05-05T03:22:57.263Z,101790.72
2023-05-05T03:25:41.443Z,101782.34
2023-05-05T03:28:07.934Z,101774.81
2023-05-05T03:30:34.404Z,101762.69
2023-05-05T03:33:01.093Z,101771.50
2023-05-05T03:35:27.971Z,101761.53
2023-05-05T03:37:55.687Z,101758.75
2023-05-05T03:40:36.380Z,101767.41
2023-05-05T03:43:09.872Z,101764.50
2023-05-05T03:45:36.339Z,101767.84
2023-05-05T03:48:03.195Z,101762.34
2023-05-05T03:50:29.668Z,101764.56
2023-05-05T03:52:56.252Z,101761.38
2023-05-05T03:55:22.792Z,101772.78
2023-05-05T03:57:49.254Z,101767.09
2023-05-05T04:00:16.059Z,101777.50
2023-05-05T04:02:43.671Z,101763.34
2023-05-05T04:05:10.297Z,101771.88
2023-05-05T04:07:36.754Z,101770.25
2023-05-05T04:10:03.313Z,101769.53
2023-05-05T04:12:29.885Z,101769.34
2023-05-05T04:14:56.367Z,101763.03
2023-05-05T04:17:22.823Z,101755.03
2023-05-05T04:19:49.392Z,101761.84
2023-05-05T04:22:15.907Z,101769.03
2023-05-05T04:24:42.374Z,101766.75
2023-05-05T04:27:08.827Z,101763.94
2023-05-05T04:29:35.313Z,101777.94
2023-05-05T04:32:01.760Z,101774.78
2023-05-05T04:34:28.283Z,101784.72
2023-05-05T04:36:54.745Z,101788.25
2023-05-05T04:39:21.595Z,101792.00
2023-05-05T04:41:48.054Z,101795.38
2023-05-05T04:44:14.542Z,101791.22
2023-05-05T04:46:41.479Z,101784.25
2023-05-05T04:49:09.190Z,101785.25
2023-05-05T04:51:35.661Z,101776.97
2023-05-05T04:54:02.176Z,101776.50
2023-05-05T04:56:32.010Z,101781.13
2023-05-05T04:58:58.615Z,101786.56
2023-05-05T05:01:25.263Z,101786.03
2023-05-05T05:03:51.780Z,101793.91
2023-05-05T05:06:18.335Z,101786.50
2023-05-05T05:08:44.829Z,101780.84
2023-05-05T05:11:11.280Z,101781.44
2023-05-05T05:13:37.795Z,101789.41
2023-05-05T05:16:04.419Z,101792.13
2023-05-05T05:18:30.894Z,101780.84
2023-05-05T05:20:57.314Z,101793.38
2023-05-05T05:23:23.852Z,101795.81
2023-05-05T05:25:50.753Z,101789.13
2023-05-05T05:28:17.210Z,101794.63
2023-05-05T05:30:43.644Z,101795.91
2023-05-05T05:33:10.790Z,101795.75
2023-05-05T05:35:37.433Z,101790.44
2023-05-05T05:38:04.006Z,101792.75
2023-05-05T05:40:31.517Z,101790.16
2023-05-05T05:42:58.078Z,101773.03
2023-05-05T05:45:24.547Z,101785.56
2023-05-05T05:47:51.111Z,101779.19
2023-05-05T05:50:17.719Z,101792.81
2023-05-05T05:52:44.187Z,101796.44
2023-05-05T05:55:10.694Z,101789.53
2023-05-05T05:57:37.144Z,101791.03
2023-05-05T06:00:04.013Z,101788.72
2023-05-05T06:02:30.662Z,101784.16
2023-05-05T06:04:57.180Z,101777.97
2023-05-05T06:07:23.677Z,101782.09
2023-05-05T06:09:50.613Z,101781.38
2023-05-05T06:12:17.118Z,101771.06
2023-05-05T06:14:43.729Z,101789.38
2023-05-05T06:17:10.270Z,101785.91
2023-05-05T06:19:39.760Z,101794.13
2023-05-05T06:22:06.362Z,101787.59
2023-05-05T06:24:32.931Z,101777.50
2023-05-05T06:26:59.431Z,101783.13
2023-05-05T06:29:26.299Z,101774.34
2023-05-05T06:31:52.830Z,101783.78
2023-05-05T06:34:19.399Z,101770.25
2023-05-05T06:36:46.041Z,101777.50
2023-05-05T06:39:15.298Z,101770.63
2023-05-05T06:41:42.471Z,101765.94
2023-05-05T06:44:08.950Z,101763.72
2023-05-05T06:46:35.574Z,101761.31
2023-05-05T06:49:02.106Z,101757.78
2023-05-05T06:51:28.553Z,101752.16
2023-05-05T06:53:55.019Z,101752.09
2023-05-05T06:56:21.594Z,101760.72
2023-05-05T06:58:48.147Z,101760.00
2023-05-05T07:01:14.663Z,101761.75
2023-05-05T07:03:41.209Z,101766.09
2023-05-05T07:06:07.838Z,101765.47
2023-05-05T07:08:34.347Z,101772.69
2023-05-05T07:11:01.201Z,101781.22
2023-05-05T07:13:27.747Z,101776.09
2023-05-05T07:15:54.273Z,101781.09
2023-05-05T07:18:21.146Z,101794.81
2023-05-05T07:20:49.154Z,101802.53
2023-05-05T07:23:15.607Z,101797.88
2023-05-05T07:25:42.198Z,101787.13
2023-05-05T07:28:08.741Z,101785.34
2023-05-05T07:30:35.259Z,101790.44
2023-05-05T07:33:01.813Z,101787.50
2023-05-05T07:35:28.541Z,101790.50
2023-05-05T07:37:54.985Z,101805.78
2023-05-05T07:40:21.668Z,101811.09
2023-05-05T07:42:48.208Z,101816.75
2023-05-05T07:45:14.665Z,101815.75
2023-05-05T07:47:41.191Z,101808.03
2023-05-05T07:50:08.612Z,101806.25
2023-05-05T07:52:46.820Z,101801.53
2023-05-05T07:55:18.163Z,101809.84
2023-05-05T07:57:44.628Z,101799.00
2023-05-05T08:00:13.288Z,101799.81
2023-05-05T08:02:40.325Z,101805.16
2023-05-05T08:05:07.520Z,101804.34
2023-05-05T08:07:34.320Z,101809.84
2023-05-05T08:10:00.828Z,101820.84
2023-05-05T08:12:27.299Z,101824.56
2023-05-05T08:14:53.782Z,101842.56
2023-05-05T08:17:20.336Z,101845.13
2023-05-05T08:19:46.881Z,101841.94
2023-05-05T08:22:13.398Z,101848.88
2023-05-05T08:24:39.830Z,101864.16
2023-05-05T08:27:06.356Z,101844.81
2023-05-05T08:29:32.814Z,101842.34
2023-05-05T08:31:59.303Z,101828.63
2023-05-05T08:34:25.841Z,101855.88
2023-05-05T08:36:52.288Z,101843.06
2023-05-05T08:39:18.771Z,101853.16
2023-05-05T08:41:45.271Z,101852.94
2023-05-05T08:44:11.965Z,101852.50
2023-05-05T08:46:39.170Z,101846.50
2023-05-05T08:49:06.195Z,101850.81
2023-05-05T08:51:40.415Z,101841.41
2023-05-05T08:54:11.615Z,101828.28
2023-05-05T08:56:41.878Z,101816.25
2023-05-05T08:59:09.142Z,101809.38
2023-05-05T09:01:36.305Z,101801.75
2023-05-05T09:04:04.390Z,101811.31
2023-05-05T09:06:33.771Z,101810.28
2023-05-05T09:09:00.987Z,101798.59
2023-05-05T09:11:28.105Z,101804.78
2023-05-05T09:13:56.125Z,101813.28
2023-05-05T09:16:23.076Z,101816.13
2023-05-05T09:18:49.650Z,101819.53
2023-05-05T09:21:25.109Z,101819.69
2023-05-05T09:24:08.173Z,101813.41
2023-05-05T09:26:59.186Z,101821.75
2023-05-05T09:29:26.578Z,101802.78
2023-05-05T09:32:08.984Z,101801.97
2023-05-05T09:34:36.206Z,101797.91
2023-05-05T09:37:03.435Z,101805.72
2023-05-05T09:39:30.043Z,101804.00
2023-05-05T09:41:56.557Z,101789.72
2023-05-05T09:44:36.729Z,101793.81
2023-05-05T09:47:26.112Z,101805.19
2023-05-05T09:50:01.901Z,101798.69
2023-05-05T09:52:32.083Z,101788.38
2023-05-05T09:54:58.576Z,101797.78
2023-05-05T09:57:27.294Z,101791.81
2023-05-05T09:59:58.927Z,101792.13
2023-05-05T10:02:33.441Z,101778.97
2023-05-05T10:05:06.665Z,101770.63
2023-05-05T10:07:33.242Z,101777.47
2023-05-05T10:09:59.689Z,101773.84
2023-05-05T10:12:26.976Z,101772.09
2023-05-05T10:14:55.892Z,101777.44
2023-05-05T10:17:23.350Z,101754.88
2023-05-05T10:19:52.699Z,101754.94
2023-05-05T10:22:23.442Z,101750.28
2023-05-05T10:24:57.912Z,101753.13
2023-05-05T10:27:26.079Z,101753.13
2023-05-05T10:29:57.808Z,101747.06
2023-05-05T10:35:03.249Z,101756.66
2023-05-05T10:37:30.928Z,101751.47
2023-05-05T10:39:57.827Z,101757.53
2023-05-05T10:42:24.371Z,101739.16
2023-05-05T10:44:51.410Z,101742.59
2023-05-05T10:47:19.300Z,101746.03
2023-05-05T10:49:52.943Z,101737.13
2023-05-05T10:52:37.319Z,101745.06
2023-05-05T10:55:14.357Z,101752.13
2023-05-05T10:57:43.092Z,101736.09
2023-05-05T11:00:10.920Z,101750.84
2023-05-05T11:02:37.550Z,101742.09
2023-05-05T11:05:18.086Z,101734.44
2023-05-05T11:07:46.491Z,101739.75
2023-05-05T11:10:15.032Z,101737.44
2023-05-05T11:12:57.874Z,101738.22
2023-05-05T11:15:27.930Z,101728.38
2023-05-05T11:17:58.499Z,101730.28
2023-05-05T11:20:39.436Z,101734.97
2023-05-05T11:23:05.928Z,101736.25
2023-05-05T11:25:39.018Z,101724.16
2023-05-05T11:28:16.338Z,101711.06
2023-05-05T11:30:55.184Z,101716.16
2023-05-05T11:33:32.852Z,101737.13
2023-05-05T11:36:12.283Z,101721.09
2023-05-05T11:39:11.869Z,101729.00
2023-05-05T11:42:08.022Z,101723.22
2023-05-05T11:44:36.221Z,101723.28
2023-05-05T11:47:05.893Z,101732.19
2023-05-05T11:49:39.389Z,101731.31
2023-05-05T11:52:10.463Z,101740.88
2023-05-05T11:54:40.469Z,101731.28
2023-05-05T11:57:10.302Z,101722.44
2023-05-05T11:59:50.230Z,101727.50
2023-05-05T12:02:17.898Z,101711.13
2023-05-05T12:04:44.534Z,101716.72
2023-05-05T12:07:21.822Z,101719.16
2023-05-05T12:09:49.083Z,101709.34
2023-05-05T12:12:16.508Z,101708.88
2023-05-05T12:14:53.253Z,101717.44
2023-05-05T12:17:20.809Z,101698.41
2023-05-05T12:19:50.346Z,101704.19
2023-05-05T12:22:26.945Z,101701.31
2023-05-05T12:24:57.732Z,101710.78
2023-05-05T12:27:25.212Z,101707.09
2023-05-05T12:29:51.927Z,101715.19
2023-05-05T12:32:26.079Z,101711.56
2023-05-05T12:34:54.411Z,101715.19
2023-05-05T12:37:22.070Z,101709.03
2023-05-05T12:39:52.283Z,101715.63
2023-05-05T12:42:19.204Z,101723.81
2023-05-05T12:44:46.717Z,101713.72
2023-05-05T12:47:14.162Z,101730.44
2023-05-05T12:49:48.670Z,101728.13
2023-05-05T12:52:16.279Z,101721.72
2023-05-05T12:54:54.835Z,101713.94
2023-05-05T12:57:22.374Z,101724.72
2023-05-05T12:59:49.414Z,101714.38
2023-05-05T13:02:16.515Z,101717.53
2023-05-05T13:04:53.534Z,101717.56
2023-05-05T13:07:21.720Z,101707.84
2023-05-05T13:09:50.963Z,101709.16
2023-05-05T13:12:17.976Z,101713.03
2023-05-05T13:14:44.734Z,101707.25
2023-05-05T13:17:11.839Z,101706.63
2023-05-05T13:19:42.785Z,101695.50
2023-05-05T13:22:13.178Z,101689.63
2023-05-05T13:24:51.003Z,101681.19
2023-05-05T13:27:18.601Z,101682.31
2023-05-05T13:29:45.127Z,101679.00
2023-05-05T13:32:11.713Z,101683.22
2023-05-05T13:34:39.256Z,101684.34
2023-05-05T13:37:06.129Z,101673.25
2023-05-05T13:39:32.761Z,101658.13
2023-05-05T13:41:59.274Z,101660.06
2023-05-05T13:44:25.749Z,101668.50
2023-05-05T13:46:52.388Z,101675.28
2023-05-05T13:49:20.028Z,101665.16
2023-05-05T13:51:47.182Z,101659.31
2023-05-05T13:54:13.962Z,101664.03
2023-05-05T13:56:40.474Z,101658.47
2023-05-05T13:59:06.964Z,101649.00
2023-05-05T14:01:33.487Z,101639.53
2023-05-05T14:04:01.449Z,101641.00
2023-05-05T14:06:29.393Z,101655.06
2023-05-05T14:08:55.940Z,101647.44
2023-05-05T14:11:22.926Z,101629.88
2023-05-05T14:13:49.746Z,101645.84
2023-05-05T14:16:16.618Z,101627.44
2023-05-05T14:18:43.188Z,101640.75
2023-05-05T14:21:09.785Z,101632.66
2023-05-05T14:23:36.307Z,101632.47
2023-05-05T14:26:02.870Z,101637.19
2023-05-05T14:28:29.325Z,101653.84
2023-05-05T14:30:56.408Z,101645.81
2023-05-05T14:33:23.014Z,101645.63
2023-05-05T14:35:51.671Z,101642.97
2023-05-05T14:38:25.356Z,101637.00
2023-05-05T14:40:51.908Z,101640.53
2023-05-05T14:43:18.412Z,101626.56
2023-05-05T14:45:44.956Z,101639.25
2023-05-05T14:48:11.541Z,101645.00
2023-05-05T14:50:39.925Z,101633.53
2023-05-05T14:53:06.422Z,101631.63
2023-05-05T14:55:33.043Z,101639.44
2023-05-05T14:57:59.549Z,101642.47
2023-05-05T15:00:26.900Z,101635.78
2023-05-05T15:02:53.623Z,101634.06
2023-05-05T15:05:20.274Z,101635.56
2023-05-05T15:07:46.781Z,101630.22
2023-05-05T15:10:13.218Z,101632.81
2023-05-05T15:12:39.711Z,101623.13
2023-05-05T15:15:08.667Z,101616.50
2023-05-05T15:17:37.471Z,101596.22
2023-05-05T15:20:06.213Z,101601.81
2023-05-05T15:22:43.196Z,101604.72
2023-05-05T15:25:12.481Z,101603.75
2023-05-05T15:27:44.060Z,101610.41
2023-05-05T15:30:21.808Z,101615.59
2023-05-05T15:32:48.337Z,101614.97
2023-05-05T15:35:14.831Z,101612.81
2023-05-05T15:37:42.873Z,101614.44
2023-05-05T15:40:09.886Z,101607.91
2023-05-05T15:42:36.579Z,101602.13
2023-05-05T15:45:03.449Z,101615.34
2023-05-05T15:47:29.924Z,101614.25
2023-05-05T15:49:56.574Z,101618.03
2023-05-05T15:52:23.038Z,101617.31
2023-05-05T15:54:49.543Z,101603.66
2023-05-05T15:57:16.459Z,101603.97
2023-05-05T15:59:43.012Z,101592.38
2023-05-05T16:02:09.482Z,101596.81
2023-05-05T16:04:35.951Z,101599.75
2023-05-05T16:07:03.383Z,101609.63
2023-05-05T16:09:29.902Z,101595.06
2023-05-05T16:11:57.028Z,101597.63
2023-05-05T16:14:24.102Z,101600.84
2023-05-05T16:16:50.693Z,101590.06
2023-05-05T16:19:18.134Z,101587.16
2023-05-05T16:21:44.874Z,101582.91
2023-05-05T16:24:16.030Z,101584.22
2023-05-05T16:26:43.554Z,101585.69
2023-05-05T16:29:10.532Z,101582.59
2023-05-05T16:31:37.084Z,101576.56
2023-05-05T16:34:03.872Z,101582.91
2023-05-05T16:36:30.357Z,101582.47
2023-05-05T16:38:56.855Z,101582.84
2023-05-05T16:41:23.802Z,101583.13
2023-05-05T16:43:50.433Z,101587.00
2023-05-05T16:46:17.022Z,101591.69
2023-05-05T16:48:43.649Z,101600.00
2023-05-05T16:51:10.140Z,101594.25
2023-05-05T16:53:36.638Z,101594.59
2023-05-05T16:56:03.324Z,101588.75
2023-05-05T16:58:29.810Z,101595.09
2023-05-05T17:00:56.258Z,101595.81
2023-05-05T17:03:22.791Z,101591.66
2023-05-05T17:05:50.470Z,101594.03
2023-05-05T17:08:17.254Z,101599.81
2023-05-05T17:10:45.328Z,101602.25
2023-05-05T17:13:12.957Z,101601.56
2023-05-05T17:15:39.596Z,101607.81
2023-05-05T17:18:06.804Z,101613.19
2023-05-05T17:20:34.413Z,101605.91
2023-05-05T17:23:02.204Z,101608.16
2023-05-05T17:25:28.812Z,101610.94
2023-05-05T17:27:56.182Z,101599.81
2023-05-05T17:30:23.410Z,101581.44
2023-05-05T17:32:50.040Z,101595.19
2023-05-05T17:35:16.650Z,101592.63
2023-05-05T17:37:43.197Z,101595.19
2023-05-05T17:40:09.904Z,101596.34
2023-05-05T17:42:36.432Z,101614.13
2023-05-05T17:45:03.362Z,101598.06
2023-05-05T17:47:29.999Z,101610.47
2023-05-05T17:49:56.914Z,101615.09
2023-05-05T17:52:23.850Z,101611.31
2023-05-05T17:54:50.702Z,101612.50
2023-05-05T17:57:18.373Z,101619.94
2023-05-05T17:59:45.078Z,101618.50
2023-05-05T18:02:11.560Z,101632.16
2023-05-05T18:04:38.030Z,101627.63
2023-05-05T18:07:04.880Z,101608.44
2023-05-05T18:09:31.350Z,101629.16
2023-05-05T18:11:57.822Z,101629.41
2023-05-05T18:14:24.598Z,101637.03
2023-05-05T18:16:52.403Z,101633.97
2023-05-05T18:19:23.127Z,101642.81
2023-05-05T18:21:54.464Z,101650.78
2023-05-05T18:24:20.969Z,101639.81
2023-05-05T18:26:50.196Z,101641.19
2023-05-05T18:29:17.881Z,101641.00
2023-05-05T18:31:46.094Z,101640.16
2023-05-05T18:34:12.594Z,101642.66
2023-05-05T18:36:39.267Z,101633.56
2023-05-05T18:39:05.772Z,101645.56
2023-05-05T18:41:35.711Z,101651.25
2023-05-05T18:44:04.611Z,101654.56
2023-05-05T18:46:31.266Z,101656.50
2023-05-05T18:48:57.823Z,101651.31
2023-05-05T18:51:24.954Z,101657.41
2023-05-05T18:53:51.424Z,101651.34
2023-05-05T18:56:18.569Z,101655.53
2023-05-05T18:58:45.044Z,101658.13
2023-05-05T19:01:11.524Z,101673.00
2023-05-05T19:03:38.124Z,101665.50
2023-05-05T19:06:07.850Z,101663.47
2023-05-05T19:08:34.462Z,101672.63
2023-05-05T19:11:00.974Z,101657.97
2023-05-05T19:13:28.171Z,101665.50
2023-05-05T19:15:57.071Z,101678.13
2023-05-05T19:18:24.216Z,101664.41
2023-05-05T19:20:50.734Z,101661.81
2023-05-05T19:23:17.193Z,101669.38
2023-05-05T19:25:43.896Z,101671.28
2023-05-05T19:28:13.670Z,101668.13
2023-05-05T19:30:40.117Z,101675.25
2023-05-05T19:33:06.703Z,101674.84
2023-05-05T19:35:33.220Z,101679.28
2023-05-05T19:37:59.785Z,101673.84
2023-05-05T19:40:26.252Z,101668.56
2023-05-05T19:42:52.811Z,101666.81
2023-05-05T19:45:19.345Z,101678.78
2023-05-05T19:47:46.235Z,101683.13
2023-05-05T19:50:12.841Z,101671.16
2023-05-05T19:52:41.385Z,101677.75
2023-05-05T19:55:10.351Z,101677.97
2023-05-05T19:57:36.937Z,101672.19
2023-05-05T20:00:03.761Z,101681.13
2023-05-05T20:02:30.525Z,101680.31
2023-05-05T20:04:57.984Z,101673.66
2023-05-05T20:07:24.470Z,101671.22
2023-05-05T20:09:50.942Z,101679.50
2023-05-05T20:12:19.532Z,101678.16
2023-05-05T20:14:46.074Z,101677.13
2023-05-05T20:17:38.952Z,101667.31
2023-05-05T20:20:06.153Z,101687.16
2023-05-05T20:22:32.731Z,101673.72
2023-05-05T20:24:59.256Z,101668.47
2023-05-05T20:27:26.726Z,101662.03
2023-05-05T20:29:55.094Z,101676.00
2023-05-05T20:32:21.594Z,101668.31
2023-05-05T20:34:48.199Z,101665.63
2023-05-05T20:37:14.721Z,101663.13
2023-05-05T20:39:42.312Z,101666.72
2023-05-05T20:42:08.745Z,101656.00
2023-05-05T20:45:00.860Z,101646.59
2023-05-05T20:47:27.345Z,101646.19
2023-05-05T20:49:54.279Z,101655.94
2023-05-05T20:52:20.852Z,101628.69
2023-05-05T20:54:47.337Z,101637.22
2023-05-05T20:57:13.797Z,101635.38
2023-05-05T20:59:40.266Z,101636.13
2023-05-05T21:02:07.420Z,101626.09
2023-05-05T21:04:33.954Z,101626.50
2023-05-05T21:07:00.594Z,101627.97
2023-05-05T21:09:52.311Z,101622.44
2023-05-05T21:12:21.785Z,101616.78
2023-05-05T21:14:48.233Z,101609.66
2023-05-05T21:17:14.678Z,101603.47
2023-05-05T21:19:41.242Z,101596.78
2023-05-05T21:22:09.672Z,101594.38
2023-05-05T21:24:38.266Z,101605.84
2023-05-05T21:27:04.797Z,101617.69
2023-05-05T21:29:37.415Z,101609.72
2023-05-05T21:32:05.127Z,101605.53
2023-05-05T21:34:31.622Z,101608.50
2023-05-05T21:36:58.155Z,101609.31
2023-05-05T21:39:24.828Z,101619.13
2023-05-05T21:41:51.612Z,101606.03
2023-05-05T21:44:18.069Z,101612.19
2023-05-05T21:46:44.690Z,101615.88
2023-05-05T21:49:15.606Z,101618.69
2023-05-05T21:51:42.662Z,101617.97
2023-05-05T21:54:09.255Z,101616.16
2023-05-05T21:56:36.915Z,101620.34
2023-05-05T21:59:04.745Z,101616.78
2023-05-05T22:01:31.852Z,101624.44
2023-05-05T22:03:58.761Z,101633.88
2023-05-05T22:06:25.358Z,101627.69
2023-05-05T22:08:51.813Z,101628.97
2023-05-05T22:11:18.807Z,101636.72
2023-05-05T22:13:46.358Z,101627.03
2023-05-05T22:16:12.905Z,101624.97
2023-05-05T22:18:39.403Z,101619.50
2023-05-05T22:21:06.133Z,101621.28
2023-05-05T22:23:32.653Z,101619.91
2023-05-05T22:25:59.177Z,101614.78
2023-05-05T22:28:27.017Z,101620.03
2023-05-05T22:30:54.024Z,101607.09
2023-05-05T22:33:20.509Z,101610.06
2023-05-05T22:35:47.060Z,101592.34
2023-05-05T22:38:13.606Z,101598.81
2023-05-05T22:40:40.195Z,101597.91
2023-05-05T22:43:06.737Z,101604.69
2023-05-05T22:45:33.286Z,101598.94
2023-05-05T22:47:59.850Z,101604.75
2023-05-05T22:50:26.354Z,101614.06
2023-05-05T22:52:52.830Z,101604.47
2023-05-05T22:55:20.308Z,101611.75
2023-05-05T22:57:47.383Z,101612.16
2023-05-05T23:00:14.604Z,101606.84
2023-05-05T23:02:41.595Z,101605.75
2023-05-05T23:05:08.681Z,101605.25
2023-05-05T23:07:35.402Z,101609.66
2023-05-05T23:10:01.918Z,101600.09
2023-05-05T23:12:28.538Z,101602.31
2023-05-05T23:14:55.038Z,101601.06
2023-05-05T23:17:21.523Z,101601.94
2023-05-05T23:19:48.501Z,101594.84
2023-05-05T23:22:15.085Z,101585.16
2023-05-05T23:24:41.729Z,101590.00
2023-05-05T23:27:08.216Z,101583.63
2023-05-05T23:29:37.671Z,101586.31
2023-05-05T23:32:04.884Z,101592.28
2023-05-05T23:34:41.305Z,101581.56
2023-05-05T23:37:08.592Z,101583.41
2023-05-05T23:39:35.247Z,101588.09
2023-05-05T23:42:01.814Z,101578.34
2023-05-05T23:44:28.418Z,101582.69
2023-05-05T23:46:54.951Z,101568.81
2023-05-05T23:49:21.523Z,101577.22
2023-05-05T23:51:48.029Z,101586.34
2023-05-05T23:54:14.522Z,101585.41
2023-05-05T23:56:41.178Z,101585.66
2023-05-05T23:59:07.869Z,101585.47
